EWR weather

Public forecast

Using degrees Fahrenheit for public forecast. Weather courtesy of forecast.io.

Current aviation weather report (METAR) for Newark Liberty International Airport

Retrieved 2020/08/10 10:38 UTC (20 minutes ago):

KEWR 101038Z 24007KT 9SM BKN006 BKN120 24/23 A3004 RMK AO2 T02390228

Aviation forecast (TAF) for Newark Liberty International Airport

Retrieved 2020/08/10 06:27 UTC (5 hours ago):

TAF KEWR 100525Z 1006/1112 24005KT P6SM SCT060 FM101800 25010KT P6SM SCT060 TEMPO 1019/1023 20008KT FM110000 22006KT P6SM SKC